sensor_id;sensor_type;location;lat;lon;timestamp;P1;durP1;ratioP1;P2;durP2;ratioP2
62654;SDS011;48717;55.556;37.816;2022-07-10T00:00:10;9.60;;;7.68;;
62654;SDS011;48717;55.556;37.816;2022-07-10T00:02:40;11.32;;;7.13;;
62654;SDS011;48717;55.556;37.816;2022-07-10T00:05:09;7.82;;;6.22;;
62654;SDS011;48717;55.556;37.816;2022-07-10T00:07:46;8.20;;;7.05;;
62654;SDS011;48717;55.556;37.816;2022-07-10T00:10:23;9.88;;;6.95;;
62654;SDS011;48717;55.556;37.816;2022-07-10T00:12:58;10.00;;;6.97;;
62654;SDS011;48717;55.556;37.816;2022-07-10T00:15:28;10.82;;;7.32;;
62654;SDS011;48717;55.556;37.816;2022-07-10T00:17:55;13.30;;;6.82;;
62654;SDS011;48717;55.556;37.816;2022-07-10T00:20:22;8.77;;;6.22;;
62654;SDS011;48717;55.556;37.816;2022-07-10T00:22:49;8.23;;;6.05;;
62654;SDS011;48717;55.556;37.816;2022-07-10T00:25:20;10.45;;;6.03;;
62654;SDS011;48717;55.556;37.816;2022-07-10T00:27:47;8.45;;;5.97;;
62654;SDS011;48717;55.556;37.816;2022-07-10T00:30:14;10.50;;;6.70;;
62654;SDS011;48717;55.556;37.816;2022-07-10T00:32:44;10.80;;;6.65;;
62654;SDS011;48717;55.556;37.816;2022-07-10T00:35:13;10.93;;;6.80;;
62654;SDS011;48717;55.556;37.816;2022-07-10T00:37:40;11.30;;;7.43;;
62654;SDS011;48717;55.556;37.816;2022-07-10T00:40:08;7.30;;;5.85;;
62654;SDS011;48717;55.556;37.816;2022-07-10T00:42:36;10.15;;;7.40;;
62654;SDS011;48717;55.556;37.816;2022-07-10T00:45:03;11.13;;;7.28;;
62654;SDS011;48717;55.556;37.816;2022-07-10T00:47:31;12.07;;;6.97;;
62654;SDS011;48717;55.556;37.816;2022-07-10T00:49:58;6.93;;;5.50;;
62654;SDS011;48717;55.556;37.816;2022-07-10T00:52:28;6.57;;;5.68;;
62654;SDS011;48717;55.556;37.816;2022-07-10T00:54:56;8.10;;;5.35;;
62654;SDS011;48717;55.556;37.816;2022-07-10T00:57:24;10.23;;;5.15;;
62654;SDS011;48717;55.556;37.816;2022-07-10T00:59:51;7.80;;;4.97;;
62654;SDS011;48717;55.556;37.816;2022-07-10T01:02:19;11.60;;;5.35;;
62654;SDS011;48717;55.556;37.816;2022-07-10T01:04:47;6.85;;;5.20;;
62654;SDS011;48717;55.556;37.816;2022-07-10T01:07:14;5.88;;;4.65;;
62654;SDS011;48717;55.556;37.816;2022-07-10T01:09:42;5.15;;;4.50;;
62654;SDS011;48717;55.556;37.816;2022-07-10T01:12:11;7.38;;;4.50;;
62654;SDS011;48717;55.556;37.816;2022-07-10T01:14:39;7.13;;;4.45;;
62654;SDS011;48717;55.556;37.816;2022-07-10T01:17:07;7.10;;;5.10;;
62654;SDS011;48717;55.556;37.816;2022-07-10T01:19:35;7.55;;;4.63;;
62654;SDS011;48717;55.556;37.816;2022-07-10T01:22:03;5.63;;;5.03;;
62654;SDS011;48717;55.556;37.816;2022-07-10T01:24:33;6.43;;;5.20;;
62654;SDS011;48717;55.556;37.816;2022-07-10T01:27:01;6.13;;;5.43;;
62654;SDS011;48717;55.556;37.816;2022-07-10T01:29:28;8.50;;;6.28;;
62654;SDS011;48717;55.556;37.816;2022-07-10T01:31:56;10.90;;;6.82;;
62654;SDS011;48717;55.556;37.816;2022-07-10T01:34:23;9.10;;;7.15;;
62654;SDS011;48717;55.556;37.816;2022-07-10T01:36:50;13.30;;;7.15;;
62654;SDS011;48717;55.556;37.816;2022-07-10T01:39:17;10.75;;;7.70;;
62654;SDS011;48717;55.556;37.816;2022-07-10T01:41:45;15.15;;;9.18;;
62654;SDS011;48717;55.556;37.816;2022-07-10T01:44:12;53.25;;;30.55;;
62654;SDS011;48717;55.556;37.816;2022-07-10T01:46:42;11.93;;;8.65;;
62654;SDS011;48717;55.556;37.816;2022-07-10T01:49:13;9.43;;;7.70;;
62654;SDS011;48717;55.556;37.816;2022-07-10T01:51:40;11.70;;;7.55;;
62654;SDS011;48717;55.556;37.816;2022-07-10T01:54:08;10.65;;;7.85;;
62654;SDS011;48717;55.556;37.816;2022-07-10T01:56:36;9.82;;;7.80;;
62654;SDS011;48717;55.556;37.816;2022-07-10T01:59:03;10.07;;;7.72;;
62654;SDS011;48717;55.556;37.816;2022-07-10T02:01:31;14.57;;;9.07;;
62654;SDS011;48717;55.556;37.816;2022-07-10T02:03:58;10.02;;;8.15;;
62654;SDS011;48717;55.556;37.816;2022-07-10T02:06:45;11.10;;;6.82;;
62654;SDS011;48717;55.556;37.816;2022-07-10T02:09:12;12.02;;;7.50;;
62654;SDS011;48717;55.556;37.816;2022-07-10T02:11:41;16.05;;;7.15;;
62654;SDS011;48717;55.556;37.816;2022-07-10T02:14:08;11.15;;;7.82;;
62654;SDS011;48717;55.556;37.816;2022-07-10T02:16:35;8.13;;;7.03;;
62654;SDS011;48717;55.556;37.816;2022-07-10T02:19:03;9.75;;;7.28;;
62654;SDS011;48717;55.556;37.816;2022-07-10T02:21:30;12.00;;;6.65;;
62654;SDS011;48717;55.556;37.816;2022-07-10T02:23:57;9.77;;;7.28;;
62654;SDS011;48717;55.556;37.816;2022-07-10T02:26:24;9.23;;;6.90;;
62654;SDS011;48717;55.556;37.816;2022-07-10T02:28:52;8.93;;;6.30;;
62654;SDS011;48717;55.556;37.816;2022-07-10T02:31:19;7.22;;;5.90;;
62654;SDS011;48717;55.556;37.816;2022-07-10T02:33:46;12.15;;;6.30;;
62654;SDS011;48717;55.556;37.816;2022-07-10T02:36:13;9.05;;;6.10;;
62654;SDS011;48717;55.556;37.816;2022-07-10T02:38:40;7.85;;;6.18;;
62654;SDS011;48717;55.556;37.816;2022-07-10T02:41:08;8.50;;;5.40;;
62654;SDS011;48717;55.556;37.816;2022-07-10T02:43:35;7.22;;;5.82;;
62654;SDS011;48717;55.556;37.816;2022-07-10T02:46:02;7.88;;;5.82;;
62654;SDS011;48717;55.556;37.816;2022-07-10T02:48:32;8.77;;;5.97;;
62654;SDS011;48717;55.556;37.816;2022-07-10T02:50:59;8.63;;;5.80;;
62654;SDS011;48717;55.556;37.816;2022-07-10T02:53:26;8.38;;;5.18;;
62654;SDS011;48717;55.556;37.816;2022-07-10T02:55:57;7.55;;;5.20;;
62654;SDS011;48717;55.556;37.816;2022-07-10T02:58:24;7.95;;;5.00;;
62654;SDS011;48717;55.556;37.816;2022-07-10T03:00:52;7.35;;;5.20;;
62654;SDS011;48717;55.556;37.816;2022-07-10T03:03:19;6.50;;;5.07;;
62654;SDS011;48717;55.556;37.816;2022-07-10T03:05:47;8.00;;;5.72;;
62654;SDS011;48717;55.556;37.816;2022-07-10T03:08:15;8.05;;;6.18;;
62654;SDS011;48717;55.556;37.816;2022-07-10T03:10:42;7.22;;;5.68;;
62654;SDS011;48717;55.556;37.816;2022-07-10T03:13:09;5.63;;;4.97;;
62654;SDS011;48717;55.556;37.816;2022-07-10T03:15:41;6.93;;;5.67;;
62654;SDS011;48717;55.556;37.816;2022-07-10T03:18:11;9.23;;;5.53;;
62654;SDS011;48717;55.556;37.816;2022-07-10T03:20:38;7.78;;;5.63;;
62654;SDS011;48717;55.556;37.816;2022-07-10T03:23:05;7.72;;;5.97;;
62654;SDS011;48717;55.556;37.816;2022-07-10T03:25:32;10.30;;;5.60;;
62654;SDS011;48717;55.556;37.816;2022-07-10T03:28:00;9.75;;;6.30;;
62654;SDS011;48717;55.556;37.816;2022-07-10T03:30:27;10.90;;;6.00;;
62654;SDS011;48717;55.556;37.816;2022-07-10T03:32:54;9.73;;;6.68;;
62654;SDS011;48717;55.556;37.816;2022-07-10T03:35:21;9.27;;;6.38;;
62654;SDS011;48717;55.556;37.816;2022-07-10T03:37:48;9.00;;;6.28;;
62654;SDS011;48717;55.556;37.816;2022-07-10T03:40:18;9.90;;;6.03;;
62654;SDS011;48717;55.556;37.816;2022-07-10T03:42:45;9.70;;;6.45;;
62654;SDS011;48717;55.556;37.816;2022-07-10T03:45:12;9.48;;;6.63;;
62654;SDS011;48717;55.556;37.816;2022-07-10T03:47:39;9.43;;;6.78;;
62654;SDS011;48717;55.556;37.816;2022-07-10T03:50:06;8.40;;;6.93;;
62654;SDS011;48717;55.556;37.816;2022-07-10T03:52:34;8.30;;;6.57;;
62654;SDS011;48717;55.556;37.816;2022-07-10T03:55:01;8.40;;;7.60;;
62654;SDS011;48717;55.556;37.816;2022-07-10T03:57:28;8.38;;;7.18;;
62654;SDS011;48717;55.556;37.816;2022-07-10T04:00:14;9.57;;;7.50;;
62654;SDS011;48717;55.556;37.816;2022-07-10T04:02:41;10.30;;;7.45;;
62654;SDS011;48717;55.556;37.816;2022-07-10T04:05:09;9.10;;;7.22;;
62654;SDS011;48717;55.556;37.816;2022-07-10T04:07:39;10.50;;;7.95;;
62654;SDS011;48717;55.556;37.816;2022-07-10T04:10:09;11.20;;;8.52;;
62654;SDS011;48717;55.556;37.816;2022-07-10T04:12:38;11.90;;;8.43;;
62654;SDS011;48717;55.556;37.816;2022-07-10T04:15:06;10.43;;;8.27;;
62654;SDS011;48717;55.556;37.816;2022-07-10T04:17:34;9.90;;;7.90;;
62654;SDS011;48717;55.556;37.816;2022-07-10T04:20:01;11.27;;;8.80;;
62654;SDS011;48717;55.556;37.816;2022-07-10T04:22:29;10.30;;;8.38;;
62654;SDS011;48717;55.556;37.816;2022-07-10T04:24:56;13.02;;;8.60;;
62654;SDS011;48717;55.556;37.816;2022-07-10T04:27:25;15.38;;;8.50;;
62654;SDS011;48717;55.556;37.816;2022-07-10T04:29:52;10.30;;;8.23;;
62654;SDS011;48717;55.556;37.816;2022-07-10T04:32:20;11.93;;;8.25;;
62654;SDS011;48717;55.556;37.816;2022-07-10T04:34:48;9.73;;;7.88;;
62654;SDS011;48717;55.556;37.816;2022-07-10T04:37:16;10.07;;;8.50;;
62654;SDS011;48717;55.556;37.816;2022-07-10T04:39:43;14.38;;;9.73;;
62654;SDS011;48717;55.556;37.816;2022-07-10T04:42:11;10.20;;;8.60;;
62654;SDS011;48717;55.556;37.816;2022-07-10T04:44:39;12.23;;;8.32;;
62654;SDS011;48717;55.556;37.816;2022-07-10T04:47:06;9.20;;;8.30;;
62654;SDS011;48717;55.556;37.816;2022-07-10T04:49:33;9.63;;;8.60;;
62654;SDS011;48717;55.556;37.816;2022-07-10T04:52:01;10.95;;;8.82;;
62654;SDS011;48717;55.556;37.816;2022-07-10T04:54:29;15.07;;;8.75;;
62654;SDS011;48717;55.556;37.816;2022-07-10T04:56:56;10.10;;;8.45;;
62654;SDS011;48717;55.556;37.816;2022-07-10T04:59:23;13.75;;;9.77;;
62654;SDS011;48717;55.556;37.816;2022-07-10T05:01:50;23.58;;;16.15;;
62654;SDS011;48717;55.556;37.816;2022-07-10T05:04:18;21.13;;;15.65;;
62654;SDS011;48717;55.556;37.816;2022-07-10T05:06:49;9.95;;;8.95;;
62654;SDS011;48717;55.556;37.816;2022-07-10T05:09:18;12.02;;;9.80;;
62654;SDS011;48717;55.556;37.816;2022-07-10T05:11:51;17.15;;;12.40;;
62654;SDS011;48717;55.556;37.816;2022-07-10T05:14:19;14.65;;;11.13;;
62654;SDS011;48717;55.556;37.816;2022-07-10T05:16:47;11.75;;;10.15;;
62654;SDS011;48717;55.556;37.816;2022-07-10T05:19:15;11.63;;;10.43;;
62654;SDS011;48717;55.556;37.816;2022-07-10T05:21:42;12.00;;;10.45;;
62654;SDS011;48717;55.556;37.816;2022-07-10T05:24:13;16.80;;;10.80;;
62654;SDS011;48717;55.556;37.816;2022-07-10T05:26:42;11.70;;;9.57;;
62654;SDS011;48717;55.556;37.816;2022-07-10T05:29:10;12.27;;;9.70;;
62654;SDS011;48717;55.556;37.816;2022-07-10T05:31:38;12.27;;;10.43;;
62654;SDS011;48717;55.556;37.816;2022-07-10T05:34:06;13.25;;;10.65;;
62654;SDS011;48717;55.556;37.816;2022-07-10T05:36:34;12.43;;;11.13;;
62654;SDS011;48717;55.556;37.816;2022-07-10T05:39:02;13.88;;;12.07;;
62654;SDS011;48717;55.556;37.816;2022-07-10T05:41:29;14.60;;;12.63;;
62654;SDS011;48717;55.556;37.816;2022-07-10T05:43:59;16.63;;;12.75;;
62654;SDS011;48717;55.556;37.816;2022-07-10T05:46:26;14.65;;;12.18;;
62654;SDS011;48717;55.556;37.816;2022-07-10T05:48:56;17.23;;;12.73;;
62654;SDS011;48717;55.556;37.816;2022-07-10T05:51:25;16.27;;;13.35;;
62654;SDS011;48717;55.556;37.816;2022-07-10T05:54:10;15.45;;;12.93;;
62654;SDS011;48717;55.556;37.816;2022-07-10T05:56:41;14.85;;;13.20;;
62654;SDS011;48717;55.556;37.816;2022-07-10T05:59:08;17.98;;;15.15;;
62654;SDS011;48717;55.556;37.816;2022-07-10T06:04:04;15.63;;;13.98;;
62654;SDS011;48717;55.556;37.816;2022-07-10T06:06:32;15.57;;;14.07;;
62654;SDS011;48717;55.556;37.816;2022-07-10T06:09:00;15.85;;;13.77;;
62654;SDS011;48717;55.556;37.816;2022-07-10T06:11:30;16.75;;;13.80;;
62654;SDS011;48717;55.556;37.816;2022-07-10T06:13:59;15.07;;;13.48;;
62654;SDS011;48717;55.556;37.816;2022-07-10T06:16:26;19.05;;;13.50;;
62654;SDS011;48717;55.556;37.816;2022-07-10T06:18:53;14.52;;;13.13;;
62654;SDS011;48717;55.556;37.816;2022-07-10T06:21:21;14.25;;;12.85;;
62654;SDS011;48717;55.556;37.816;2022-07-10T06:23:49;13.70;;;12.35;;
62654;SDS011;48717;55.556;37.816;2022-07-10T06:26:17;14.32;;;12.82;;
62654;SDS011;48717;55.556;37.816;2022-07-10T06:28:44;14.77;;;13.02;;
62654;SDS011;48717;55.556;37.816;2022-07-10T06:31:11;14.07;;;12.68;;
62654;SDS011;48717;55.556;37.816;2022-07-10T06:33:39;13.85;;;12.40;;
62654;SDS011;48717;55.556;37.816;2022-07-10T06:36:06;13.32;;;11.60;;
62654;SDS011;48717;55.556;37.816;2022-07-10T06:38:34;12.75;;;11.43;;
62654;SDS011;48717;55.556;37.816;2022-07-10T06:41:01;13.18;;;11.70;;
62654;SDS011;48717;55.556;37.816;2022-07-10T06:43:28;12.02;;;10.90;;
62654;SDS011;48717;55.556;37.816;2022-07-10T06:45:55;11.77;;;10.57;;
62654;SDS011;48717;55.556;37.816;2022-07-10T06:48:23;11.93;;;9.90;;
62654;SDS011;48717;55.556;37.816;2022-07-10T06:50:53;13.07;;;9.77;;
62654;SDS011;48717;55.556;37.816;2022-07-10T06:53:20;10.10;;;8.50;;
62654;SDS011;48717;55.556;37.816;2022-07-10T06:55:53;9.25;;;7.32;;
62654;SDS011;48717;55.556;37.816;2022-07-10T06:58:21;7.90;;;7.10;;
62654;SDS011;48717;55.556;37.816;2022-07-10T07:00:48;9.07;;;7.25;;
62654;SDS011;48717;55.556;37.816;2022-07-10T07:03:15;7.97;;;6.90;;
62654;SDS011;48717;55.556;37.816;2022-07-10T07:05:43;7.47;;;6.78;;
62654;SDS011;48717;55.556;37.816;2022-07-10T07:08:10;8.15;;;7.45;;
62654;SDS011;48717;55.556;37.816;2022-07-10T07:10:37;9.48;;;7.15;;
62654;SDS011;48717;55.556;37.816;2022-07-10T07:13:04;8.88;;;7.97;;
62654;SDS011;48717;55.556;37.816;2022-07-10T07:15:31;9.30;;;7.93;;
62654;SDS011;48717;55.556;37.816;2022-07-10T07:18:02;8.68;;;7.70;;
62654;SDS011;48717;55.556;37.816;2022-07-10T07:20:38;8.52;;;7.72;;
62654;SDS011;48717;55.556;37.816;2022-07-10T07:23:31;10.02;;;7.88;;
62654;SDS011;48717;55.556;37.816;2022-07-10T07:25:59;12.38;;;7.93;;
62654;SDS011;48717;55.556;37.816;2022-07-10T07:28:29;10.57;;;7.95;;
62654;SDS011;48717;55.556;37.816;2022-07-10T07:30:57;10.32;;;7.70;;
62654;SDS011;48717;55.556;37.816;2022-07-10T07:33:26;8.57;;;7.68;;
62654;SDS011;48717;55.556;37.816;2022-07-10T07:35:55;8.07;;;7.28;;
62654;SDS011;48717;55.556;37.816;2022-07-10T07:38:23;7.95;;;7.22;;
62654;SDS011;48717;55.556;37.816;2022-07-10T07:40:51;7.72;;;6.90;;
62654;SDS011;48717;55.556;37.816;2022-07-10T07:43:18;11.15;;;7.05;;
62654;SDS011;48717;55.556;37.816;2022-07-10T07:45:45;6.90;;;6.22;;
62654;SDS011;48717;55.556;37.816;2022-07-10T07:48:14;9.65;;;6.35;;
62654;SDS011;48717;55.556;37.816;2022-07-10T07:50:41;7.22;;;6.63;;
62654;SDS011;48717;55.556;37.816;2022-07-10T07:53:09;7.30;;;6.60;;
62654;SDS011;48717;55.556;37.816;2022-07-10T07:55:36;6.70;;;6.10;;
62654;SDS011;48717;55.556;37.816;2022-07-10T07:58:04;6.82;;;5.82;;
62654;SDS011;48717;55.556;37.816;2022-07-10T08:00:31;7.55;;;6.85;;
62654;SDS011;48717;55.556;37.816;2022-07-10T08:03:04;6.40;;;5.60;;
62654;SDS011;48717;55.556;37.816;2022-07-10T08:05:33;6.82;;;6.05;;
62654;SDS011;48717;55.556;37.816;2022-07-10T08:08:00;6.43;;;5.82;;
62654;SDS011;48717;55.556;37.816;2022-07-10T08:10:33;8.48;;;5.60;;
62654;SDS011;48717;55.556;37.816;2022-07-10T08:13:11;6.03;;;5.40;;
62654;SDS011;48717;55.556;37.816;2022-07-10T08:15:39;8.93;;;5.65;;
62654;SDS011;48717;55.556;37.816;2022-07-10T08:18:06;11.00;;;6.18;;
62654;SDS011;48717;55.556;37.816;2022-07-10T08:20:34;10.43;;;7.65;;
62654;SDS011;48717;55.556;37.816;2022-07-10T08:23:01;8.13;;;7.05;;
62654;SDS011;48717;55.556;37.816;2022-07-10T08:25:28;6.85;;;5.68;;
62654;SDS011;48717;55.556;37.816;2022-07-10T08:28:01;10.33;;;5.93;;
62654;SDS011;48717;55.556;37.816;2022-07-10T08:30:30;6.75;;;5.30;;
62654;SDS011;48717;55.556;37.816;2022-07-10T08:32:57;8.20;;;5.80;;
62654;SDS011;48717;55.556;37.816;2022-07-10T08:35:25;6.45;;;4.95;;
62654;SDS011;48717;55.556;37.816;2022-07-10T08:37:52;5.68;;;5.18;;
62654;SDS011;48717;55.556;37.816;2022-07-10T08:40:21;6.38;;;5.25;;
62654;SDS011;48717;55.556;37.816;2022-07-10T08:42:49;5.90;;;5.30;;
62654;SDS011;48717;55.556;37.816;2022-07-10T08:45:16;5.60;;;4.82;;
62654;SDS011;48717;55.556;37.816;2022-07-10T08:47:43;9.20;;;5.43;;
62654;SDS011;48717;55.556;37.816;2022-07-10T08:50:17;5.53;;;5.00;;
62654;SDS011;48717;55.556;37.816;2022-07-10T08:53:00;7.65;;;4.57;;
62654;SDS011;48717;55.556;37.816;2022-07-10T08:55:35;5.03;;;4.50;;
62654;SDS011;48717;55.556;37.816;2022-07-10T08:58:03;5.03;;;4.57;;
62654;SDS011;48717;55.556;37.816;2022-07-10T09:00:33;5.25;;;4.47;;
62654;SDS011;48717;55.556;37.816;2022-07-10T09:03:00;5.30;;;4.80;;
62654;SDS011;48717;55.556;37.816;2022-07-10T09:05:28;6.22;;;4.25;;
62654;SDS011;48717;55.556;37.816;2022-07-10T09:07:55;6.00;;;3.88;;
62654;SDS011;48717;55.556;37.816;2022-07-10T09:10:26;4.28;;;3.88;;
62654;SDS011;48717;55.556;37.816;2022-07-10T09:12:55;6.72;;;4.32;;
62654;SDS011;48717;55.556;37.816;2022-07-10T09:15:28;9.52;;;4.50;;
62654;SDS011;48717;55.556;37.816;2022-07-10T09:17:59;4.60;;;3.95;;
62654;SDS011;48717;55.556;37.816;2022-07-10T09:20:38;7.55;;;4.70;;
62654;SDS011;48717;55.556;37.816;2022-07-10T09:25:47;4.60;;;4.20;;
62654;SDS011;48717;55.556;37.816;2022-07-10T09:28:19;6.82;;;4.63;;
62654;SDS011;48717;55.556;37.816;2022-07-10T09:30:48;8.15;;;4.60;;
62654;SDS011;48717;55.556;37.816;2022-07-10T09:33:25;4.68;;;4.15;;
62654;SDS011;48717;55.556;37.816;2022-07-10T09:43:43;4.70;;;4.30;;
62654;SDS011;48717;55.556;37.816;2022-07-10T09:46:18;5.13;;;4.30;;
62654;SDS011;48717;55.556;37.816;2022-07-10T09:48:48;7.05;;;4.50;;
62654;SDS011;48717;55.556;37.816;2022-07-10T09:51:31;10.68;;;5.82;;
62654;SDS011;48717;55.556;37.816;2022-07-10T09:54:10;8.25;;;5.68;;
62654;SDS011;48717;55.556;37.816;2022-07-10T09:56:41;5.47;;;4.70;;
62654;SDS011;48717;55.556;37.816;2022-07-10T09:59:14;10.05;;;5.43;;
62654;SDS011;48717;55.556;37.816;2022-07-10T10:01:46;8.57;;;5.18;;
62654;SDS011;48717;55.556;37.816;2022-07-10T10:04:14;5.90;;;4.28;;
62654;SDS011;48717;55.556;37.816;2022-07-10T10:07:06;4.10;;;3.78;;
62654;SDS011;48717;55.556;37.816;2022-07-10T10:09:45;15.35;;;4.18;;
62654;SDS011;48717;55.556;37.816;2022-07-10T10:12:27;5.32;;;4.07;;
62654;SDS011;48717;55.556;37.816;2022-07-10T10:15:19;7.85;;;3.70;;
62654;SDS011;48717;55.556;37.816;2022-07-10T10:17:46;5.88;;;3.90;;
62654;SDS011;48717;55.556;37.816;2022-07-10T10:20:16;5.03;;;3.78;;
62654;SDS011;48717;55.556;37.816;2022-07-10T10:23:07;4.25;;;3.60;;
62654;SDS011;48717;55.556;37.816;2022-07-10T10:25:48;5.13;;;3.70;;
62654;SDS011;48717;55.556;37.816;2022-07-10T10:28:32;5.07;;;3.60;;
62654;SDS011;48717;55.556;37.816;2022-07-10T10:31:00;3.72;;;3.38;;
62654;SDS011;48717;55.556;37.816;2022-07-10T10:36:13;4.00;;;3.30;;
62654;SDS011;48717;55.556;37.816;2022-07-10T10:39:03;4.75;;;3.45;;
62654;SDS011;48717;55.556;37.816;2022-07-10T10:41:38;4.35;;;3.55;;
62654;SDS011;48717;55.556;37.816;2022-07-10T10:49:17;4.47;;;3.47;;
62654;SDS011;48717;55.556;37.816;2022-07-10T10:52:00;4.47;;;3.40;;
62654;SDS011;48717;55.556;37.816;2022-07-10T10:57:33;8.65;;;3.55;;
62654;SDS011;48717;55.556;37.816;2022-07-10T11:00:04;4.22;;;3.50;;
62654;SDS011;48717;55.556;37.816;2022-07-10T11:02:35;5.43;;;3.65;;
62654;SDS011;48717;55.556;37.816;2022-07-10T11:10:31;8.50;;;4.60;;
62654;SDS011;48717;55.556;37.816;2022-07-10T11:13:03;7.50;;;5.55;;
62654;SDS011;48717;55.556;37.816;2022-07-10T11:15:39;5.40;;;4.20;;
62654;SDS011;48717;55.556;37.816;2022-07-10T11:18:10;9.00;;;5.00;;
62654;SDS011;48717;55.556;37.816;2022-07-10T11:31:10;6.10;;;3.65;;
62654;SDS011;48717;55.556;37.816;2022-07-10T11:33:42;9.05;;;5.40;;
62654;SDS011;48717;55.556;37.816;2022-07-10T11:36:11;17.17;;;9.05;;
62654;SDS011;48717;55.556;37.816;2022-07-10T11:41:26;8.75;;;5.28;;
62654;SDS011;48717;55.556;37.816;2022-07-10T11:43:54;6.55;;;4.05;;
62654;SDS011;48717;55.556;37.816;2022-07-10T11:46:26;15.55;;;7.70;;
62654;SDS011;48717;55.556;37.816;2022-07-10T11:48:55;6.95;;;5.38;;
62654;SDS011;48717;55.556;37.816;2022-07-10T11:53:58;7.97;;;3.53;;
62654;SDS011;48717;55.556;37.816;2022-07-10T11:56:27;10.20;;;4.00;;
62654;SDS011;48717;55.556;37.816;2022-07-10T11:59:05;8.25;;;4.68;;
62654;SDS011;48717;55.556;37.816;2022-07-10T12:01:43;7.15;;;3.75;;
62654;SDS011;48717;55.556;37.816;2022-07-10T12:04:16;4.35;;;3.78;;
62654;SDS011;48717;55.556;37.816;2022-07-10T12:06:45;10.25;;;4.28;;
62654;SDS011;48717;55.556;37.816;2022-07-10T12:09:14;6.43;;;4.28;;
62654;SDS011;48717;55.556;37.816;2022-07-10T12:11:43;8.07;;;4.07;;
62654;SDS011;48717;55.556;37.816;2022-07-10T12:14:12;6.40;;;4.60;;
62654;SDS011;48717;55.556;37.816;2022-07-10T12:16:45;9.15;;;4.65;;
62654;SDS011;48717;55.556;37.816;2022-07-10T12:19:16;8.30;;;3.80;;
62654;SDS011;48717;55.556;37.816;2022-07-10T12:21:45;6.85;;;3.63;;
62654;SDS011;48717;55.556;37.816;2022-07-10T12:24:15;5.88;;;3.53;;
62654;SDS011;48717;55.556;37.816;2022-07-10T12:26:47;5.30;;;3.67;;
62654;SDS011;48717;55.556;37.816;2022-07-10T12:29:20;6.78;;;3.40;;
62654;SDS011;48717;55.556;37.816;2022-07-10T12:31:51;4.57;;;3.50;;
62654;SDS011;48717;55.556;37.816;2022-07-10T12:34:35;6.50;;;3.35;;
62654;SDS011;48717;55.556;37.816;2022-07-10T12:37:09;4.35;;;3.30;;
62654;SDS011;48717;55.556;37.816;2022-07-10T12:39:38;6.05;;;3.50;;
62654;SDS011;48717;55.556;37.816;2022-07-10T12:42:27;8.63;;;3.70;;
62654;SDS011;48717;55.556;37.816;2022-07-10T12:45:10;7.18;;;4.18;;
62654;SDS011;48717;55.556;37.816;2022-07-10T12:47:47;5.25;;;3.80;;
62654;SDS011;48717;55.556;37.816;2022-07-10T12:50:15;10.70;;;4.00;;
62654;SDS011;48717;55.556;37.816;2022-07-10T12:52:44;5.03;;;3.67;;
62654;SDS011;48717;55.556;37.816;2022-07-10T13:00:20;5.68;;;3.80;;
62654;SDS011;48717;55.556;37.816;2022-07-10T13:02:50;5.03;;;3.63;;
62654;SDS011;48717;55.556;37.816;2022-07-10T13:05:31;11.88;;;4.43;;
62654;SDS011;48717;55.556;37.816;2022-07-10T13:10:52;7.68;;;3.92;;
62654;SDS011;48717;55.556;37.816;2022-07-10T13:13:24;5.05;;;3.60;;
62654;SDS011;48717;55.556;37.816;2022-07-10T13:15:52;5.75;;;3.15;;
62654;SDS011;48717;55.556;37.816;2022-07-10T13:18:24;3.55;;;3.25;;
62654;SDS011;48717;55.556;37.816;2022-07-10T13:20:56;7.97;;;3.72;;
62654;SDS011;48717;55.556;37.816;2022-07-10T13:23:28;4.65;;;3.20;;
62654;SDS011;48717;55.556;37.816;2022-07-10T13:25:56;6.03;;;3.77;;
62654;SDS011;48717;55.556;37.816;2022-07-10T13:28:28;5.05;;;3.80;;
62654;SDS011;48717;55.556;37.816;2022-07-10T13:30:55;6.53;;;4.70;;
62654;SDS011;48717;55.556;37.816;2022-07-10T13:33:23;10.32;;;4.75;;
62654;SDS011;48717;55.556;37.816;2022-07-10T13:35:51;4.38;;;3.97;;
62654;SDS011;48717;55.556;37.816;2022-07-10T13:38:18;6.78;;;3.90;;
62654;SDS011;48717;55.556;37.816;2022-07-10T13:40:47;8.13;;;4.03;;
62654;SDS011;48717;55.556;37.816;2022-07-10T13:43:14;7.70;;;4.53;;
62654;SDS011;48717;55.556;37.816;2022-07-10T13:45:46;8.70;;;3.50;;
62654;SDS011;48717;55.556;37.816;2022-07-10T13:48:14;5.93;;;4.00;;
62654;SDS011;48717;55.556;37.816;2022-07-10T13:50:43;6.35;;;3.97;;
62654;SDS011;48717;55.556;37.816;2022-07-10T13:53:15;8.63;;;3.95;;
62654;SDS011;48717;55.556;37.816;2022-07-10T13:55:43;8.07;;;4.18;;
62654;SDS011;48717;55.556;37.816;2022-07-10T13:58:11;7.63;;;4.13;;
62654;SDS011;48717;55.556;37.816;2022-07-10T14:00:39;5.72;;;4.60;;
62654;SDS011;48717;55.556;37.816;2022-07-10T14:03:06;7.90;;;4.78;;
62654;SDS011;48717;55.556;37.816;2022-07-10T14:05:34;10.68;;;5.15;;
62654;SDS011;48717;55.556;37.816;2022-07-10T14:08:01;7.05;;;4.90;;
62654;SDS011;48717;55.556;37.816;2022-07-10T14:10:29;9.75;;;5.47;;
62654;SDS011;48717;55.556;37.816;2022-07-10T14:12:56;11.63;;;7.85;;
62654;SDS011;48717;55.556;37.816;2022-07-10T14:15:25;30.05;;;22.02;;
62654;SDS011;48717;55.556;37.816;2022-07-10T14:17:52;10.57;;;4.78;;
62654;SDS011;48717;55.556;37.816;2022-07-10T14:20:21;55.58;;;6.78;;
62654;SDS011;48717;55.556;37.816;2022-07-10T14:22:48;16.90;;;2.72;;
62654;SDS011;48717;55.556;37.816;2022-07-10T14:25:16;8.82;;;2.30;;
62654;SDS011;48717;55.556;37.816;2022-07-10T14:27:43;3.40;;;2.10;;
62654;SDS011;48717;55.556;37.816;2022-07-10T14:30:11;6.13;;;2.40;;
62654;SDS011;48717;55.556;37.816;2022-07-10T14:32:38;7.00;;;2.30;;
62654;SDS011;48717;55.556;37.816;2022-07-10T14:35:05;9.35;;;2.60;;
62654;SDS011;48717;55.556;37.816;2022-07-10T14:37:33;6.57;;;2.85;;
62654;SDS011;48717;55.556;37.816;2022-07-10T14:40:04;7.18;;;2.80;;
62654;SDS011;48717;55.556;37.816;2022-07-10T14:42:33;8.73;;;3.75;;
62654;SDS011;48717;55.556;37.816;2022-07-10T14:45:00;8.10;;;3.75;;
62654;SDS011;48717;55.556;37.816;2022-07-10T14:47:29;10.73;;;5.38;;
62654;SDS011;48717;55.556;37.816;2022-07-10T14:49:56;7.45;;;4.18;;
62654;SDS011;48717;55.556;37.816;2022-07-10T14:52:23;8.95;;;4.57;;
62654;SDS011;48717;55.556;37.816;2022-07-10T14:54:52;15.07;;;6.55;;
62654;SDS011;48717;55.556;37.816;2022-07-10T14:57:22;6.53;;;4.23;;
62654;SDS011;48717;55.556;37.816;2022-07-10T14:59:49;11.18;;;4.90;;
62654;SDS011;48717;55.556;37.816;2022-07-10T15:02:16;16.15;;;6.20;;
62654;SDS011;48717;55.556;37.816;2022-07-10T15:04:43;12.88;;;4.50;;
62654;SDS011;48717;55.556;37.816;2022-07-10T15:07:11;9.88;;;5.30;;
62654;SDS011;48717;55.556;37.816;2022-07-10T15:09:38;12.35;;;5.32;;
62654;SDS011;48717;55.556;37.816;2022-07-10T15:12:05;11.52;;;6.63;;
62654;SDS011;48717;55.556;37.816;2022-07-10T15:14:32;11.73;;;6.47;;
62654;SDS011;48717;55.556;37.816;2022-07-10T15:17:00;7.88;;;5.90;;
62654;SDS011;48717;55.556;37.816;2022-07-10T15:19:28;7.93;;;5.53;;
62654;SDS011;48717;55.556;37.816;2022-07-10T15:22:31;14.85;;;9.63;;
62654;SDS011;48717;55.556;37.816;2022-07-10T15:25:03;7.47;;;5.38;;
62654;SDS011;48717;55.556;37.816;2022-07-10T15:27:59;8.55;;;5.20;;
62654;SDS011;48717;55.556;37.816;2022-07-10T15:30:29;8.27;;;5.07;;
62654;SDS011;48717;55.556;37.816;2022-07-10T15:32:56;9.77;;;6.90;;
62654;SDS011;48717;55.556;37.816;2022-07-10T15:35:23;11.00;;;5.07;;